createdAt,value
2019-01-18T00:00:00.439Z,22.5
2019-01-18T00:00:50.434Z,22.5
2019-01-18T00:01:41.038Z,22.5
2019-01-18T00:02:29.703Z,22.5
2019-01-18T00:03:35.856Z,22.4
2019-01-18T00:04:11.506Z,22.4
2019-01-18T00:05:01.146Z,22.4
2019-01-18T00:05:51.341Z,22.4
2019-01-18T00:06:41.374Z,22.4
2019-01-18T00:07:31.133Z,22.4
2019-01-18T00:08:20.958Z,22.4
2019-01-18T00:09:10.414Z,22.4
2019-01-18T00:10:00.857Z,22.3
2019-01-18T00:10:51.090Z,22.3
2019-01-18T00:11:40.885Z,22.3
2019-01-18T00:12:31.765Z,22.3
2019-01-18T00:13:20.705Z,22.3
2019-01-18T00:14:11.611Z,22.3
2019-01-18T00:15:02.010Z,22.3
2019-01-18T00:15:52.573Z,22.3
2019-01-18T00:16:40.938Z,22.3
2019-01-18T00:17:31.552Z,22.3
2019-01-18T00:18:21.606Z,22.2
2019-01-18T00:19:11.387Z,22.2
2019-01-18T00:20:02.611Z,22.2
2019-01-18T00:20:51.515Z,22.2
2019-01-18T00:21:41.607Z,22.2
2019-01-18T00:22:32.437Z,22.1
2019-01-18T00:23:22.493Z,22.1
2019-01-18T00:24:12.827Z,22.1
2019-01-18T00:25:02.920Z,22.1
2019-01-18T00:25:52.179Z,22.1
2019-01-18T00:26:42.750Z,22.1
2019-01-18T00:27:33.092Z,22.1
2019-01-18T00:28:22.464Z,22.1
2019-01-18T00:29:11.892Z,22.1
2019-01-18T00:30:02.755Z,22
2019-01-18T00:30:52.565Z,22
2019-01-18T00:31:42.032Z,22
2019-01-18T00:32:32.377Z,22
2019-01-18T00:33:23.030Z,21.9
2019-01-18T00:34:12.759Z,21.9
2019-01-18T00:35:03.128Z,21.9
2019-01-18T00:35:53.176Z,21.9
2019-01-18T00:36:42.954Z,21.9
2019-01-18T00:37:33.000Z,21.9
2019-01-18T00:38:22.826Z,21.9
2019-01-18T00:39:13.437Z,21.9
2019-01-18T00:40:03.199Z,21.9
2019-01-18T00:40:53.423Z,21.9
2019-01-18T03:08:45.918Z,24.7
2019-01-18T03:09:34.956Z,24.4
2019-01-18T03:10:26.350Z,25.8
2019-01-18T03:11:16.662Z,31.4
2019-01-18T03:12:06.232Z,34.4
2019-01-18T03:12:57.006Z,36
2019-01-18T03:13:45.996Z,35.4
2019-01-18T03:14:36.843Z,35.1
2019-01-18T03:15:26.682Z,34.9
2019-01-18T03:16:15.619Z,34.8
2019-01-18T03:17:05.436Z,33.9
2019-01-18T03:17:56.327Z,32.1
2019-01-18T03:18:46.690Z,30.4
2019-01-18T03:19:37.249Z,28.9
2019-01-18T03:20:27.293Z,27.8
2019-01-18T03:21:17.008Z,26.9
2019-01-18T03:22:20.632Z,26.2
2019-01-18T03:23:47.206Z,25.3
2019-01-18T03:24:37.123Z,24.9
2019-01-18T03:25:27.209Z,24.7
2019-01-18T03:26:17.145Z,24.5
2019-01-18T03:27:07.481Z,24.4
2019-01-18T03:27:57.290Z,24.2
2019-01-18T03:28:47.390Z,24.2
2019-01-18T03:29:37.912Z,24.1
2019-01-18T03:30:29.062Z,24
2019-01-18T03:31:17.950Z,23.9
2019-01-18T03:32:07.689Z,23.9
2019-01-18T03:32:58.282Z,23.9
2019-01-18T03:33:47.185Z,27
2019-01-18T03:34:37.998Z,31.8
2019-01-18T03:35:28.059Z,34.8
2019-01-18T03:36:17.327Z,36.5
2019-01-18T03:37:07.975Z,36.2
2019-01-18T03:37:57.994Z,35.8
2019-01-18T03:38:48.575Z,35.4
2019-01-18T03:39:38.697Z,35.2
2019-01-18T03:40:28.423Z,34.9
2019-01-18T03:41:17.417Z,33.8
2019-01-18T03:42:07.482Z,32.1
2019-01-18T03:42:58.460Z,30.4
2019-01-18T03:43:47.991Z,29
2019-01-18T03:44:37.075Z,27.9
2019-01-18T03:45:27.929Z,27.1
2019-01-18T03:46:19.067Z,26.4
2019-01-18T03:47:08.901Z,25.9
2019-01-18T03:47:58.078Z,25.4
2019-01-18T03:48:47.832Z,25.1
2019-01-18T03:49:38.993Z,24.8
2019-01-18T03:50:28.788Z,24.7
2019-01-18T03:51:18.532Z,24.5
2019-01-18T03:52:09.421Z,24.4
2019-01-18T03:52:59.754Z,24.3
2019-01-18T03:53:48.934Z,24.2
2019-01-18T03:54:39.403Z,28.4
2019-01-18T03:55:29.392Z,32.8
2019-01-18T03:56:19.173Z,35.2
2019-01-18T03:57:09.496Z,35.8
2019-01-18T03:57:59.259Z,35.3
2019-01-18T03:58:49.850Z,35.1
2019-01-18T03:59:39.691Z,34.9
2019-01-18T04:00:34.139Z,34.6
2019-01-18T04:01:20.114Z,33.2
2019-01-18T04:02:08.734Z,31.5
2019-01-18T04:02:59.989Z,29.9
2019-01-18T04:03:49.793Z,28.6
2019-01-18T04:04:39.793Z,27.6
2019-01-18T04:05:30.076Z,26.8
2019-01-18T04:06:20.403Z,26.1
2019-01-18T04:07:10.730Z,25.6
2019-01-18T04:08:00.203Z,25.3
2019-01-18T04:08:50.910Z,25
2019-01-18T04:09:41.131Z,24.8
2019-01-18T04:10:30.396Z,24.6
2019-01-18T04:11:20.688Z,24.5
2019-01-18T04:12:10.545Z,24.3
2019-01-18T04:13:00.295Z,24.3
2019-01-18T04:13:50.118Z,24.3
2019-01-18T04:14:40.136Z,24.2
2019-01-18T04:15:29.465Z,24.1
2019-01-18T04:16:20.578Z,25.2
2019-01-18T04:17:10.379Z,30.9
2019-01-18T04:18:00.218Z,34.1
2019-01-18T04:18:50.740Z,36.1
2019-01-18T04:19:41.268Z,36.5
2019-01-18T04:20:31.060Z,35.8
2019-01-18T04:21:21.660Z,35.4
2019-01-18T04:22:11.731Z,35.1
2019-01-18T04:23:01.810Z,35
2019-01-18T04:23:51.655Z,34.5
2019-01-18T04:24:41.618Z,33.1
2019-01-18T04:25:31.535Z,31.4
2019-01-18T04:26:21.995Z,29.9
2019-01-18T04:27:11.745Z,28.7
2019-01-18T04:28:01.585Z,27.6
2019-01-18T04:28:51.912Z,26.9
2019-01-18T04:29:41.120Z,26.3
2019-01-18T04:30:40.068Z,25.9
2019-01-18T04:31:22.350Z,25.4
2019-01-18T04:32:11.845Z,25.2
2019-01-18T04:33:02.212Z,25
2019-01-18T04:33:52.250Z,24.8
2019-01-18T04:34:42.556Z,24.6
2019-01-18T04:35:32.989Z,25.8
2019-01-18T04:36:22.750Z,31.3
2019-01-18T04:37:13.009Z,34.4
2019-01-18T04:38:02.324Z,36.2
2019-01-18T04:38:52.640Z,35.9
2019-01-18T04:39:42.354Z,35.4
2019-01-18T04:40:33.087Z,35.3
2019-01-18T04:41:22.751Z,35.1
2019-01-18T04:42:12.803Z,34.8
2019-01-18T04:43:02.323Z,33.6
2019-01-18T04:43:53.576Z,32
2019-01-18T04:44:43.271Z,30.4
2019-01-18T04:45:32.738Z,29
2019-01-18T04:46:23.086Z,27.9
2019-01-18T04:47:12.611Z,27.1
2019-01-18T04:48:02.920Z,26.5
2019-01-18T04:48:52.687Z,26
2019-01-18T04:49:42.816Z,25.6
2019-01-18T04:50:33.634Z,25.3
2019-01-18T04:51:23.144Z,25
2019-01-18T04:52:13.216Z,24.8
2019-01-18T04:53:02.980Z,24.7
2019-01-18T04:53:52.751Z,24.6
2019-01-18T04:54:43.111Z,24.4
2019-01-18T04:55:48.629Z,24.4
2019-01-18T04:56:22.617Z,24.9
2019-01-18T04:57:14.082Z,29
2019-01-18T04:58:03.378Z,34
2019-01-18T04:58:53.630Z,35.5
2019-01-18T04:59:43.997Z,36.5
2019-01-18T05:00:42.498Z,35.8
2019-01-18T05:01:24.687Z,35.3
2019-01-18T05:02:14.160Z,35.1
2019-01-18T05:03:04.230Z,34.9
2019-01-18T05:03:54.842Z,34.5
2019-01-18T05:04:44.109Z,33.2
2019-01-18T05:05:33.590Z,31.5
2019-01-18T05:06:23.069Z,29.9
2019-01-18T05:07:14.501Z,28.8
2019-01-18T05:08:04.287Z,27.7
2019-01-18T05:08:54.354Z,26.9
2019-01-18T05:09:44.084Z,26.3
2019-01-18T05:10:34.421Z,25.8
2019-01-18T05:11:25.313Z,25.4
2019-01-18T05:12:14.612Z,25.1
2019-01-18T05:13:05.507Z,24.9
2019-01-18T05:13:54.755Z,24.6
2019-01-18T05:14:44.746Z,24.5
2019-01-18T05:15:34.291Z,24.4
2019-01-18T05:16:25.724Z,24.3
2019-01-18T05:17:15.472Z,24.2
2019-01-18T05:18:05.336Z,24.1
2019-01-18T05:18:55.055Z,24.1
2019-01-18T05:19:46.574Z,28.7
2019-01-18T05:20:35.153Z,32.9
2019-01-18T05:21:25.464Z,35.2
2019-01-18T05:22:15.513Z,36.1
2019-01-18T05:23:05.585Z,35.5
2019-01-18T05:23:55.067Z,35.2
2019-01-18T05:24:52.847Z,34.9
2019-01-18T05:25:35.200Z,34.8
2019-01-18T05:26:25.277Z,34.3
2019-01-18T05:27:15.310Z,32.9
2019-01-18T05:28:05.390Z,31.1
2019-01-18T05:28:55.709Z,29.6
2019-01-18T05:29:44.113Z,28.4
2019-01-18T05:30:36.350Z,27.4
2019-01-18T05:31:26.123Z,26.7
2019-01-18T05:32:14.893Z,26.1
2019-01-18T05:33:06.075Z,25.6
2019-01-18T05:33:55.526Z,25.3
2019-01-18T05:34:45.624Z,25.1
2019-01-18T05:35:36.506Z,24.9
2019-01-18T05:36:26.553Z,24.7
2019-01-18T05:37:15.475Z,24.6
2019-01-18T05:38:06.405Z,24.4
2019-01-18T05:38:56.187Z,24.4
2019-01-18T05:39:46.190Z,24.3
2019-01-18T05:40:35.702Z,26.8
2019-01-18T05:41:26.612Z,31.8
2019-01-18T05:42:17.138Z,34.8
2019-01-18T05:43:07.193Z,36.4
2019-01-18T05:43:56.743Z,36.1
2019-01-18T05:44:47.500Z,35.7
2019-01-18T05:45:37.128Z,35.4
2019-01-18T05:46:26.419Z,35.1
2019-01-18T05:47:16.694Z,34.9
2019-01-18T05:48:06.685Z,34.1
2019-01-18T05:48:57.584Z,32.4
2019-01-18T05:49:47.414Z,30.7
2019-01-18T05:50:35.819Z,29.3
2019-01-18T05:51:26.677Z,28.2
2019-01-18T05:52:17.589Z,27.3
2019-01-18T05:53:07.589Z,26.6
2019-01-18T05:53:58.144Z,26.1
2019-01-18T05:54:47.429Z,25.7
2019-01-18T05:55:38.316Z,25.4
2019-01-18T05:56:27.532Z,25.1
2019-01-18T05:57:17.352Z,24.9
2019-01-18T05:58:07.359Z,24.8
2019-01-18T05:58:57.401Z,24.7
2019-01-18T05:59:48.051Z,24.6
2019-01-18T06:00:38.119Z,24.5
2019-01-18T06:01:30.994Z,24.4
2019-01-18T06:02:18.193Z,25.2
2019-01-18T06:03:08.821Z,30.5
2019-01-18T06:03:58.078Z,33.9
2019-01-18T06:06:46.337Z,35.5
2019-01-18T06:07:36.144Z,35.1
2019-01-18T06:08:26.581Z,34.9
2019-01-18T06:09:16.821Z,34.6
2019-01-18T06:10:06.863Z,33.2
2019-01-18T06:10:56.891Z,31.4
2019-01-18T06:11:46.659Z,29.9
2019-01-18T06:12:37.050Z,28.7
2019-01-18T06:13:27.350Z,27.7
2019-01-18T06:14:16.553Z,26.9
2019-01-18T06:15:06.694Z,26.4
2019-01-18T06:15:57.298Z,25.9
2019-01-18T06:16:47.288Z,25.5
2019-01-18T06:17:37.628Z,25.3
2019-01-18T06:18:26.615Z,25.1
2019-01-18T06:19:16.892Z,24.9
2019-01-18T06:20:07.129Z,24.8
2019-01-18T06:20:57.800Z,24.6
2019-01-18T06:21:47.913Z,24.6
2019-01-18T06:22:37.965Z,24.5
2019-01-18T06:23:27.810Z,25.3
2019-01-18T06:24:17.015Z,30.9
2019-01-18T06:25:08.081Z,34.1
2019-01-18T06:25:57.985Z,36.1
2019-01-18T06:26:48.318Z,36.2
2019-01-18T06:27:37.879Z,35.7
2019-01-18T06:28:27.799Z,35.4
2019-01-18T06:29:18.095Z,35.1
2019-01-18T06:30:08.205Z,35
2019-01-18T06:31:05.146Z,34.1
2019-01-18T06:31:48.285Z,32.3
2019-01-18T06:32:38.324Z,30.9
2019-01-18T06:33:29.953Z,29.5
2019-01-18T06:34:18.522Z,28.3
2019-01-18T06:35:08.854Z,27.4
2019-01-18T06:35:58.329Z,26.8
2019-01-18T06:36:47.667Z,26.2
2019-01-18T06:37:38.175Z,25.8
2019-01-18T06:38:28.996Z,25.4
2019-01-18T06:39:19.058Z,25.2
2019-01-18T06:40:09.145Z,25
2019-01-18T06:40:58.881Z,24.8
2019-01-18T06:41:48.970Z,24.7
2019-01-18T06:42:38.469Z,24.6
2019-01-18T06:43:29.340Z,24.5
2019-01-18T06:44:19.416Z,24.4
2019-01-18T06:45:08.903Z,28.7
2019-01-18T06:45:59.513Z,32.9
2019-01-18T06:46:48.286Z,35.3
2019-01-18T06:47:39.356Z,36.3
2019-01-18T06:48:29.164Z,35.7
2019-01-18T06:49:19.458Z,35.4
2019-01-18T06:50:09.296Z,35.1
2019-01-18T06:50:59.828Z,34.9
2019-01-18T06:51:49.374Z,34.3
2019-01-18T06:52:39.738Z,32.8
2019-01-18T06:53:29.452Z,31.1
2019-01-18T06:54:19.788Z,29.6
2019-01-18T06:55:09.318Z,28.4
2019-01-18T06:56:00.233Z,27.5
2019-01-18T06:56:49.698Z,26.8
2019-01-18T06:57:40.088Z,26.2
2019-01-18T06:58:29.802Z,25.8
2019-01-18T06:59:20.219Z,25.4
2019-01-18T07:00:10.315Z,25.1
2019-01-18T07:01:00.002Z,24.9
2019-01-18T07:01:49.752Z,24.8
2019-01-18T07:02:40.097Z,24.6
2019-01-18T07:03:30.418Z,24.6
2019-01-18T07:04:20.548Z,24.5
2019-01-18T07:06:45.977Z,24.3
2019-01-18T07:07:35.163Z,24.3
2019-01-18T07:08:26.359Z,26.9
2019-01-18T07:09:16.407Z,31.9
2019-01-18T07:10:06.469Z,34.8
2019-01-18T07:10:56.506Z,36.5
2019-01-18T07:11:45.474Z,35.9
2019-01-18T07:12:36.059Z,35.5
2019-01-18T07:13:26.674Z,35.3
2019-01-18T07:14:16.252Z,35
2019-01-18T07:15:07.207Z,34.8
2019-01-18T07:15:57.099Z,33.8
2019-01-18T07:16:46.904Z,32.2
2019-01-18T07:17:36.169Z,30.6
2019-01-18T07:18:27.798Z,29.3
2019-01-18T07:19:17.067Z,28.1
2019-01-18T07:20:06.584Z,27.3
2019-01-18T07:20:56.916Z,26.6
2019-01-18T07:21:47.810Z,26.1
2019-01-18T07:22:36.729Z,25.7
2019-01-18T07:23:27.629Z,25.4
2019-01-18T07:24:18.006Z,25.1
2019-01-18T07:25:07.223Z,24.9
2019-01-18T07:25:56.812Z,24.8
2019-01-18T07:26:47.601Z,24.7
2019-01-18T07:27:37.251Z,24.6
2019-01-18T07:28:27.726Z,24.6
2019-01-18T07:29:18.044Z,30.1
2019-01-18T07:30:08.116Z,33.8
2019-01-18T07:30:57.016Z,35.9
2019-01-18T07:31:47.666Z,36.2
2019-01-18T07:32:37.440Z,35.6
2019-01-18T07:33:28.050Z,35.3
2019-01-18T07:34:18.367Z,35
2019-01-18T07:35:09.485Z,34.8
2019-01-18T07:35:58.471Z,34.1
2019-01-18T07:36:48.273Z,32.7
2019-01-18T07:37:38.112Z,31
2019-01-18T07:38:27.820Z,29.6
2019-01-18T07:39:24.478Z,28.4
2019-01-18T07:40:08.795Z,27.4
2019-01-18T07:40:58.275Z,26.8
2019-01-18T07:41:48.360Z,26.3
2019-01-18T07:42:39.279Z,25.8
2019-01-18T07:43:29.340Z,25.5
2019-01-18T07:44:19.147Z,25.3
2019-01-18T07:45:08.882Z,25
2019-01-18T07:45:58.665Z,24.9
2019-01-18T07:46:48.765Z,24.8
2019-01-18T07:47:39.044Z,24.6
2019-01-18T07:48:29.105Z,24.5
2019-01-18T07:49:19.197Z,24.5
2019-01-18T07:50:08.989Z,24.5
2019-01-18T07:50:58.415Z,29.9
2019-01-18T07:51:49.359Z,33.6
2019-01-18T07:52:39.637Z,35.8
2019-01-18T07:53:29.709Z,36.2
2019-01-18T07:54:19.196Z,35.6
2019-01-18T07:55:08.976Z,35.3
2019-01-18T07:55:59.067Z,35.1
2019-01-18T07:56:49.402Z,34.9
2019-01-18T07:57:39.731Z,34.2
2019-01-18T07:58:29.469Z,32.6
2019-01-18T07:59:19.796Z,30.9
2019-01-18T08:00:09.902Z,29.5
2019-01-18T08:01:01.898Z,28.4
2019-01-18T08:01:49.439Z,27.4
2019-01-18T08:02:40.052Z,26.8
2019-01-18T08:03:30.123Z,26.3
2019-01-18T08:04:19.626Z,25.8
2019-01-18T08:05:10.285Z,25.5
2019-01-18T08:06:00.003Z,25.3
2019-01-18T08:06:50.321Z,25.1
2019-01-18T08:07:39.852Z,24.9
2019-01-18T08:08:30.166Z,24.8
2019-01-18T08:09:20.828Z,24.7
2019-01-18T08:10:10.548Z,24.6
2019-01-18T08:11:00.921Z,24.4
2019-01-18T08:11:50.446Z,29.3
2019-01-18T08:12:39.896Z,33.3
2019-01-18T08:13:30.518Z,35.5
2019-01-18T08:14:20.865Z,36.3
2019-01-18T08:15:10.913Z,35.7
2019-01-18T08:16:01.243Z,35.3
2019-01-18T08:16:51.275Z,35.1
2019-01-18T08:17:41.399Z,34.9
2019-01-18T08:18:30.838Z,34.2
2019-01-18T08:19:21.483Z,32.6
2019-01-18T08:20:10.953Z,30.9
2019-01-18T08:21:01.615Z,29.5
2019-01-18T08:21:51.942Z,28.4
2019-01-18T08:22:41.146Z,27.5
2019-01-18T08:23:31.185Z,26.8
2019-01-18T08:24:21.512Z,26.3
2019-01-18T08:25:11.608Z,25.9
2019-01-18T08:26:01.620Z,25.5
2019-01-18T08:26:50.906Z,25.3
2019-01-18T08:27:41.519Z,25.1
2019-01-18T08:28:32.102Z,24.9
2019-01-18T08:29:21.890Z,24.8
2019-01-18T08:30:11.435Z,24.7
2019-01-18T08:31:02.261Z,24.6
2019-01-18T08:31:52.317Z,24.6
2019-01-18T08:32:42.117Z,25
2019-01-18T08:33:31.348Z,30.5
2019-01-18T08:34:21.459Z,33.9
2019-01-18T08:35:12.337Z,35.9
2019-01-18T08:36:02.124Z,36.1
2019-01-18T08:36:52.139Z,35.6
2019-01-18T08:37:42.714Z,35.3
2019-01-18T08:38:31.489Z,35.1
2019-01-18T08:39:22.569Z,34.9
2019-01-18T08:40:12.647Z,34.1
2019-01-18T08:41:03.021Z,32.5
2019-01-18T08:41:52.214Z,30.9
2019-01-18T08:42:42.796Z,29.5
2019-01-18T08:43:32.309Z,28.4
2019-01-18T08:44:22.362Z,27.5
2019-01-18T08:45:12.789Z,26.9
2019-01-18T08:46:01.973Z,26.3
2019-01-18T08:46:52.621Z,25.9
2019-01-18T08:47:42.924Z,25.6
2019-01-18T08:48:33.258Z,25.3
2019-01-18T08:49:22.796Z,25.1
2019-01-18T08:50:13.366Z,25
2019-01-18T08:51:04.421Z,24.9
2019-01-18T08:51:52.407Z,25
2019-01-18T08:52:43.737Z,30.3
2019-01-18T08:53:32.760Z,33.9
2019-01-18T08:54:23.856Z,35.9
2019-01-18T08:55:13.658Z,35.6
2019-01-18T08:56:03.695Z,35.4
2019-01-18T08:56:53.736Z,35.1
2019-01-18T08:57:43.870Z,34.9
2019-01-18T08:58:33.389Z,34.5
2019-01-18T08:59:23.415Z,33.1
2019-01-18T09:00:13.202Z,31.4
2019-01-18T09:01:03.195Z,29.8
2019-01-18T09:01:54.697Z,28.6
2019-01-18T09:02:43.875Z,27.7
2019-01-18T09:03:34.217Z,26.9
2019-01-18T09:04:23.434Z,26.4
2019-01-18T09:05:15.400Z,25.9
2019-01-18T09:06:04.722Z,25.6
2019-01-18T09:06:53.980Z,25.4
2019-01-18T09:07:43.940Z,25.2
2019-01-18T09:08:34.310Z,25
2019-01-18T09:09:24.654Z,24.9
2019-01-18T09:10:14.934Z,24.8
2019-01-18T09:11:04.447Z,24.7
2019-01-18T09:11:54.249Z,24.6
2019-01-18T09:12:45.394Z,24.6
2019-01-18T09:13:35.445Z,25.6
2019-01-18T09:14:27.220Z,31.1
2019-01-18T09:15:14.464Z,34.4
2019-01-18T09:16:04.774Z,36.1
2019-01-18T09:16:54.277Z,36.3
2019-01-18T09:17:44.919Z,35.8
2019-01-18T09:18:36.812Z,35.4
2019-01-18T09:19:24.747Z,35.1
2019-01-18T09:20:14.821Z,34.9
2019-01-18T09:21:05.417Z,34.1
2019-01-18T09:21:55.749Z,32.5
2019-01-18T09:22:45.243Z,30.8
2019-01-18T09:23:35.313Z,29.4
2019-01-18T09:24:25.721Z,28.4
2019-01-18T09:25:15.426Z,27.5
2019-01-18T09:26:05.501Z,26.9
2019-01-18T09:26:55.801Z,26.4
2019-01-18T09:27:45.325Z,25.9
2019-01-18T09:28:34.805Z,25.6
2019-01-18T09:29:26.329Z,25.4
2019-01-18T09:30:15.755Z,25.2
2019-01-18T09:31:06.371Z,25
2019-01-18T09:31:56.174Z,24.9
2019-01-18T09:32:45.918Z,27.8
2019-01-18T09:33:36.556Z,32.4
2019-01-18T09:34:26.626Z,35.1
2019-01-18T09:35:16.109Z,36.7
2019-01-18T09:36:06.433Z,36.1
2019-01-18T09:36:56.188Z,35.6
2019-01-18T09:37:46.872Z,35.4
2019-01-18T09:38:36.663Z,35.1
2019-01-18T09:39:26.386Z,34.8
2019-01-18T09:40:17.339Z,33.6
2019-01-18T09:41:05.665Z,31.9
2019-01-18T09:41:57.116Z,30.4
2019-01-18T09:42:46.642Z,29.1
2019-01-18T09:43:36.678Z,28.1
2019-01-18T09:44:27.050Z,27.3
2019-01-18T09:45:17.623Z,26.7
2019-01-18T09:46:06.575Z,26.3
2019-01-18T09:46:56.902Z,25.8
2019-01-18T09:47:47.250Z,25.6
2019-01-18T09:48:36.462Z,25.3
2019-01-18T09:49:27.359Z,25.1
2019-01-18T09:50:17.170Z,25
2019-01-18T09:51:07.719Z,24.9
2019-01-18T09:51:57.794Z,24.8
2019-01-18T09:52:47.569Z,24.7
2019-01-18T09:53:37.920Z,25.4
2019-01-18T09:54:27.167Z,31
2019-01-18T09:55:17.460Z,34.2
2019-01-18T09:56:07.820Z,36.1
2019-01-18T09:56:57.644Z,36.1
2019-01-18T09:57:47.512Z,35.7
2019-01-18T09:58:37.224Z,35.3
2019-01-18T09:59:27.046Z,35.1
2019-01-18T10:00:17.611Z,34.9
2019-01-18T10:01:09.389Z,33.8
2019-01-18T10:01:57.444Z,32.1
2019-01-18T10:02:47.522Z,30.5
2019-01-18T10:03:38.139Z,29.2
2019-01-18T10:04:28.174Z,28.1
2019-01-18T10:05:17.943Z,27.3
2019-01-18T10:07:45.879Z,25.9
2019-01-18T10:08:36.422Z,25.6
2019-01-18T10:09:26.799Z,25.4
2019-01-18T10:10:16.033Z,25.2
2019-01-18T10:11:05.551Z,25
2019-01-18T10:11:55.800Z,24.9
2019-01-18T10:12:46.193Z,24.8
2019-01-18T10:13:37.476Z,28.9
2019-01-18T10:14:26.263Z,33.1
2019-01-18T10:15:15.635Z,35.5
2019-01-18T10:16:06.785Z,36.4
2019-01-18T10:16:56.253Z,35.8
2019-01-18T10:17:46.774Z,35.4
2019-01-18T10:18:35.785Z,35.2
2019-01-18T10:19:26.874Z,35
2019-01-18T10:20:16.657Z,34.3
2019-01-18T10:21:07.090Z,32.7
2019-01-18T10:21:56.273Z,31.1
2019-01-18T10:22:45.795Z,29.7
2019-01-18T10:23:36.163Z,28.5
2019-01-18T10:24:28.460Z,27.6
2019-01-18T10:25:17.328Z,26.9
2019-01-18T10:26:07.365Z,26.4
2019-01-18T10:26:57.412Z,25.9
2019-01-18T10:27:47.738Z,25.6
2019-01-18T10:28:37.552Z,25.4
2019-01-18T10:29:34.567Z,25.2
2019-01-18T10:30:18.230Z,25
2019-01-18T10:31:07.754Z,24.9
2019-01-18T10:32:03.345Z,24.8
2019-01-18T10:32:47.845Z,24.8
2019-01-18T10:33:37.877Z,24.7
2019-01-18T10:34:28.520Z,24.6
2019-01-18T10:35:18.534Z,29
2019-01-18T10:36:07.497Z,33.1
2019-01-18T10:36:59.489Z,35.4
2019-01-18T10:37:48.521Z,36.3
2019-01-18T10:38:38.201Z,35.8
2019-01-18T10:39:28.789Z,35.4
2019-01-18T10:40:18.304Z,35.1
2019-01-18T10:41:08.928Z,34.9
2019-01-18T10:41:58.215Z,34.3
2019-01-18T10:42:48.779Z,32.8
2019-01-18T10:43:37.999Z,31.1
2019-01-18T10:44:28.973Z,29.7
2019-01-18T10:45:18.392Z,28.5
2019-01-18T10:46:08.447Z,27.6
2019-01-18T10:46:57.676Z,26.9
2019-01-18T10:47:48.293Z,26.4
2019-01-18T10:48:38.957Z,26
2019-01-18T10:49:29.228Z,25.7
2019-01-18T10:50:18.516Z,25.4
2019-01-18T10:51:09.406Z,25.3
2019-01-18T10:51:59.149Z,25.1
2019-01-18T10:52:48.681Z,24.9
2019-01-18T10:53:39.272Z,24.9
2019-01-18T10:54:29.301Z,24.8
2019-01-18T10:55:19.670Z,28.3
2019-01-18T10:56:09.184Z,32.8
2019-01-18T10:56:58.615Z,35.2
2019-01-18T10:57:49.583Z,36.5
2019-01-18T10:58:39.635Z,35.8
2019-01-18T10:59:29.927Z,35.5
2019-01-18T11:00:19.987Z,35.2
2019-01-18T11:01:09.801Z,35
2019-01-18T11:02:12.984Z,34.4
2019-01-18T11:02:49.543Z,32.6
2019-01-18T11:03:39.587Z,31.4
2019-01-18T11:04:29.672Z,29.8
2019-01-18T11:05:20.324Z,28.7
2019-01-18T11:06:10.349Z,27.8
2019-01-18T11:06:59.845Z,27.1
2019-01-18T11:07:49.605Z,26.5
2019-01-18T11:08:39.671Z,26.1
2019-01-18T11:09:30.009Z,25.8
2019-01-18T11:10:19.787Z,25.5
2019-01-18T11:11:09.552Z,25.3
2019-01-18T11:12:00.170Z,25.1
2019-01-18T11:12:50.764Z,25
2019-01-18T11:13:40.545Z,24.9
2019-01-18T11:14:30.631Z,24.8
2019-01-18T11:15:20.941Z,24.8
2019-01-18T11:16:10.454Z,27.8
2019-01-18T11:17:01.146Z,32.4
2019-01-18T11:17:51.407Z,35.1
2019-01-18T11:18:40.900Z,36.6
2019-01-18T11:19:30.414Z,35.9
2019-01-18T11:20:20.470Z,35.5
2019-01-18T11:21:11.612Z,35.3
2019-01-18T11:22:00.831Z,35.1
2019-01-18T11:22:51.190Z,34.6
2019-01-18T11:23:41.525Z,33.3
2019-01-18T11:24:31.309Z,31.6
2019-01-18T11:25:22.166Z,30.1
2019-01-18T11:26:11.471Z,28.7
2019-01-18T11:27:00.926Z,27.9
2019-01-18T11:27:51.801Z,27.2
2019-01-18T11:28:41.364Z,26.6
2019-01-18T11:29:31.623Z,26.2
2019-01-18T11:30:21.994Z,25.8
2019-01-18T11:31:11.773Z,25.6
2019-01-18T11:32:02.066Z,25.4
2019-01-18T11:32:51.304Z,25.3
2019-01-18T11:33:41.661Z,25.1
2019-01-18T11:34:30.858Z,26.8
2019-01-18T11:35:22.347Z,31.8
2019-01-18T11:36:11.515Z,34.8
2019-01-18T11:37:05.463Z,36.4
2019-01-18T11:37:51.395Z,36.3
2019-01-18T11:38:42.268Z,35.9
2019-01-18T11:39:32.361Z,35.6
2019-01-18T11:40:22.096Z,35.3
2019-01-18T11:41:12.445Z,35.1
2019-01-18T11:42:06.165Z,34
2019-01-18T11:42:52.345Z,32.3
2019-01-18T11:43:42.357Z,30.8
2019-01-18T11:44:32.701Z,29.4
2019-01-18T11:45:22.787Z,28.4
2019-01-18T11:46:11.965Z,27.6
2019-01-18T11:47:02.834Z,26.9
2019-01-18T11:47:52.650Z,26.4
2019-01-18T11:48:43.265Z,26.1
2019-01-18T11:49:33.327Z,25.7
2019-01-18T11:50:22.844Z,25.5
2019-01-18T11:51:12.862Z,25.3
2019-01-18T11:52:02.995Z,25.2
2019-01-18T11:52:52.417Z,25.1
2019-01-18T11:53:44.494Z,25
2019-01-18T11:54:33.374Z,24.9
2019-01-18T11:55:23.969Z,28.3
2019-01-18T11:56:13.809Z,32.8
2019-01-18T11:57:03.024Z,35.3
2019-01-18T11:57:53.369Z,36.1
2019-01-18T11:58:43.914Z,35.6
2019-01-18T11:59:33.982Z,35.3
2019-01-18T12:00:24.046Z,35
2019-01-18T12:01:13.819Z,34.9
2019-01-18T12:02:03.342Z,33.9
2019-01-18T12:02:53.929Z,32.3
2019-01-18T12:03:44.252Z,30.7
2019-01-18T12:04:34.102Z,29.3
2019-01-18T12:05:24.201Z,28.3
2019-01-18T12:07:45.424Z,26.5
2019-01-18T12:08:36.324Z,26.1
2019-01-18T12:09:26.086Z,25.7
2019-01-18T12:10:16.156Z,25.5
2019-01-18T12:11:06.793Z,25.3
2019-01-18T12:11:56.803Z,25.2
2019-01-18T12:12:45.753Z,25.1
2019-01-18T12:13:35.558Z,24.9
2019-01-18T12:14:26.771Z,24.9
2019-01-18T12:15:16.234Z,30.3
2019-01-18T12:16:05.722Z,33.8
2019-01-18T12:16:56.663Z,35.9
2019-01-18T12:17:46.403Z,36.2
2019-01-18T12:18:36.448Z,35.8
2019-01-18T12:19:26.485Z,35.4
2019-01-18T12:20:16.290Z,35.1
2019-01-18T12:21:06.085Z,34.9
2019-01-18T12:21:56.665Z,34
2019-01-18T12:22:47.311Z,32.4
2019-01-18T12:23:36.483Z,30.8
2019-01-18T12:24:26.871Z,29.4
2019-01-18T12:25:17.172Z,28.3
2019-01-18T12:26:07.007Z,27.5
2019-01-18T12:26:57.272Z,26.9
2019-01-18T12:27:46.822Z,26.4
2019-01-18T12:28:37.109Z,26
2019-01-18T12:29:29.320Z,25.8
2019-01-18T12:30:17.575Z,25.5
2019-01-18T12:31:08.126Z,25.4
2019-01-18T12:31:56.929Z,25.2
2019-01-18T12:32:47.201Z,25.1
2019-01-18T12:33:36.987Z,25
2019-01-18T12:34:27.355Z,24.9
2019-01-18T12:35:16.541Z,28.9
2019-01-18T12:36:06.903Z,32.9
2019-01-18T12:37:04.836Z,35.4
2019-01-18T12:37:47.860Z,36.7
2019-01-18T12:38:37.615Z,36.1
2019-01-18T12:39:28.418Z,35.7
2019-01-18T12:40:17.968Z,35.4
2019-01-18T12:41:07.160Z,35.1
2019-01-18T12:41:58.038Z,34.8
2019-01-18T12:42:47.824Z,33.3
2019-01-18T12:43:38.497Z,31.6
2019-01-18T12:44:28.786Z,30.1
2019-01-18T12:45:17.167Z,28.9
2019-01-18T12:46:07.500Z,28
2019-01-18T12:46:58.397Z,27.3
2019-01-18T12:47:48.735Z,26.7
2019-01-18T12:48:38.492Z,26.3
2019-01-18T12:49:28.585Z,25.9
2019-01-18T12:50:19.485Z,25.7
2019-01-18T12:51:10.444Z,25.5
2019-01-18T12:51:58.992Z,25.4
2019-01-18T12:52:49.052Z,25.2
2019-01-18T12:53:39.115Z,25.1
2019-01-18T12:54:29.749Z,26.1
2019-01-18T12:55:19.542Z,31.4
2019-01-18T12:56:09.558Z,34.6
2019-01-18T12:56:59.330Z,36.3
2019-01-18T12:57:48.855Z,35.9
2019-01-18T12:58:39.192Z,35.5
2019-01-18T12:59:29.579Z,35.3
2019-01-18T13:00:19.692Z,35.1
2019-01-18T13:01:09.624Z,34.6
2019-01-18T13:01:59.739Z,33.3
2019-01-18T13:02:49.742Z,31.6
2019-01-18T13:03:39.794Z,30.1
2019-01-18T13:04:29.911Z,28.9
2019-01-18T13:05:19.229Z,28
2019-01-18T13:06:09.689Z,27.3
2019-01-18T13:06:59.524Z,26.7
2019-01-18T13:07:49.301Z,26.3
2019-01-18T13:08:40.923Z,25.9
2019-01-18T13:09:30.216Z,25.7
2019-01-18T13:10:19.798Z,25.5
2019-01-18T13:11:10.083Z,25.4
2019-01-18T13:12:00.974Z,25.3
2019-01-18T13:12:50.526Z,25.1
2019-01-18T13:13:39.131Z,27.8
2019-01-18T13:14:29.748Z,32.4
2019-01-18T13:15:20.348Z,35.3
2019-01-18T13:16:10.745Z,36.8
2019-01-18T13:17:01.356Z,36.3
2019-01-18T13:17:50.764Z,35.9
2019-01-18T13:18:40.851Z,35.6
2019-01-18T13:19:30.948Z,35.4
2019-01-18T13:20:20.683Z,35.1
2019-01-18T13:21:10.485Z,34.1
2019-01-18T13:22:00.228Z,32.4
2019-01-18T13:22:50.890Z,30.8
2019-01-18T13:23:41.185Z,29.6
2019-01-18T13:24:30.991Z,28.5
2019-01-18T13:25:20.516Z,27.7
2019-01-18T13:26:11.715Z,27.1
2019-01-18T13:27:00.632Z,26.6
2019-01-18T13:27:51.189Z,26.4
2019-01-18T13:28:41.547Z,26.4
2019-01-18T13:29:31.337Z,26.1
2019-01-18T13:30:22.242Z,25.7
2019-01-18T13:31:11.401Z,25.3
2019-01-18T13:32:02.050Z,25
2019-01-18T13:32:51.837Z,27.5
2019-01-18T13:33:41.599Z,32.3
2019-01-18T13:34:31.412Z,34.8
2019-01-18T13:35:21.327Z,36.1
2019-01-18T13:36:11.502Z,35.5
2019-01-18T13:37:01.922Z,35.2
2019-01-18T13:37:52.444Z,34.8
2019-01-18T13:38:41.397Z,34.6
2019-01-18T13:39:32.052Z,33.9
2019-01-18T13:40:21.892Z,32.6
2019-01-18T13:41:11.897Z,31.2
2019-01-18T13:42:03.824Z,29.9
2019-01-18T13:42:52.000Z,28.8